Latest Weather Observations for Yulara

IDD60801

Issued at 6:51 am CST Monday 3 October 2022 (issued every 10 minutes, with the page automatically refreshed every 10 minutes)

About weather observations | Map of weather stations | Latest weather observations for NT | Other Formats
Station Details ID: 015635 Name: YULARA AIRPORT Lat: -25.19 Lon: 130.97 Height: 492.0 m
Data from the previous 72 hours. | See also: Recent months at Yulara
Date/Time
CST
Temp
°C
App
Temp
°C
Dew
Point
°C
Rel
Hum
%
Delta-T
°C
Wind Press
QNH
hPa
Press
MSL
hPa
Rain since
9am
mm
Dir  Spd
km/h
Gust
km/h
Spd
kts
Gust
kts
03/06:30am 17.1 18.2 16.5 96 0.4 SSE 6 7 3 4 1009.2 1006.6 0.8
03/06:00am 16.9 18.1 15.9 94 0.6 ESE 4 7 2 4 1009.0 1006.3 0.8
03/05:30am 16.6 17.1 15.5 93 0.7 ESE 7 11 4 6 1008.8 1006.1 0.8
03/05:00am 16.6 16.7 15.6 94 0.6 S 9 13 5 7 1008.8 1006.1 0.8
03/04:30am 16.6 17.1 15.1 91 0.9 SSE 6 9 3 5 1008.8 1006.1 0.8
03/04:00am 17.5 17.5 15.3 87 1.3 ESE 9 11 5 6 1008.7 1006.0 0.8
03/03:30am 17.5 17.5 15.3 87 1.3 SE 9 13 5 7 1008.7 1006.0 0.8
03/03:00am 17.5 17.4 15.0 85 1.5 SE 9 11 5 6 1009.0 1006.3 0.8
03/02:30am 17.4 17.6 14.7 84 1.6 SE 7 11 4 6 1009.0 1006.3 0.8
03/02:00am 18.2 17.9 14.5 79 2.2 SE 9 11 5 6 1009.5 1006.9 0.8
03/01:30am 18.9 18.7 14.6 76 2.6 E 9 11 5 6 1009.9 1007.3 0.8
03/01:00am 18.7 18.1 14.6 77 2.4 SE 11 22 6 12 1009.9 1007.3 0.8
03/12:30am 18.7 18.6 15.0 79 2.2 ESE 9 13 5 7 1010.2 1007.6 0.8
03/12:00am 18.8 18.4 15.1 79 2.2 ESE 11 15 6 8 1010.4 1007.7 0.8
 
Date/Time
CST
Temp
°C
App
Temp
°C
Dew
Point
°C
Rel
Hum
%
Delta-T
°C
Wind Press
QNH
hPa
Press
MSL
hPa
Rain since
9am
mm
Dir  Spd
km/h
Gust
km/h
Spd
kts
Gust
kts
02/11:30pm 19.0 18.5 15.9 82 1.9 SE 13 15 7 8 1010.5 1007.8 0.8
02/11:00pm 19.3 19.3 16.2 82 1.9 SSE 11 13 6 7 1010.8 1008.1 0.8
02/10:30pm 19.6 19.5 16.1 80 2.1 SE 11 13 6 7 1010.9 1008.2 0.8
02/10:00pm 20.2 20.6 16.4 79 2.3 SE 9 11 5 6 1011.1 1008.5 0.8
02/09:30pm 20.7 20.9 16.7 78 2.5 SE 11 15 6 8 1011.2 1008.6 0.8
02/09:00pm 20.7 20.8 16.5 77 2.6 SE 11 13 6 7 1010.9 1008.2 0.8
02/08:30pm 20.4 20.9 16.6 79 2.3 SSE 9 13 5 7 1010.6 1007.9 0.8
02/08:00pm 21.1 22.1 16.9 77 2.6 SSE 7 11 4 6 1010.2 1007.6 0.8
02/07:30pm 23.1 22.4 15.4 62 4.7 E 13 19 7 10 1009.8 1007.2 0.2
02/07:00pm 23.7 23.5 14.7 57 5.5 E 9 13 5 7 1009.3 1006.7 0.2
02/06:30pm 24.0 23.4 14.7 56 5.7 ESE 11 15 6 8 1008.9 1006.2 0.2
02/06:00pm 24.0 23.4 14.7 56 5.7 E 11 15 6 8 1008.8 1006.1 0.2
02/05:30pm 24.3 23.5 15.0 56 5.7 E 13 17 7 9 1008.8 1006.1 0.2
02/05:00pm 24.3 24.2 13.8 52 6.3 ENE 7 11 4 6 1008.7 1006.0 0.2
02/04:30pm 24.3 24.1 14.7 55 5.8 NE 9 15 5 8 1008.7 1006.0 0.2
02/04:00pm 23.6 23.0 14.6 57 5.4 NE 11 17 6 9 1009.1 1006.5 0.2
02/03:30pm 23.9 23.2 14.3 55 5.8 E 11 17 6 9 1009.0 1006.3 0.2
02/03:00pm 23.0 23.0 15.1 61 4.8 N 9 17 5 9 1009.6 1007.0 0.2
02/02:30pm 22.6 22.4 15.7 65 4.2 NNE 11 17 6 9 1010.1 1007.5 0.2
02/02:00pm 22.0 21.8 15.8 68 3.8 NNE 11 17 6 9 1010.7 1008.0 0.2
02/01:30pm 20.7 20.2 14.8 69 3.5 NE 11 17 6 9 1011.2 1008.6 0.2
02/01:00pm 20.6 20.0 15.6 73 3.0 NNE 13 20 7 11 1011.5 1008.9 0.0
02/12:30pm 19.4 18.4 14.6 74 2.9 NE 13 17 7 9 1012.3 1009.7 0.0
02/12:17pm 19.4 17.9 15.3 77 2.5 NE 17 28 9 15 1012.6 1009.9 0.0
02/12:00pm 19.0 17.5 15.3 79 2.2 NE 17 24 9 13 1013.0 1010.4 0.0
02/11:30am 18.2 16.5 15.8 86 1.5 ENE 19 24 10 13 1013.4 1010.8 0.0
02/11:00am 17.6 15.8 15.4 87 1.3 NE 19 26 10 14 1013.7 1011.1 0.0
02/10:30am 17.5 15.6 15.3 87 1.3 NE 19 24 10 13 1014.0 1011.4 0.0
02/10:00am 17.0 15.5 15.2 89 1.1 NE 17 22 9 12 1014.1 1011.5 0.0
02/09:30am 16.3 14.3 15.5 95 0.5 ENE 20 26 11 14 1014.0 1011.4 0.0
02/09:28am 16.3 14.4 15.7 96 0.4 ENE 20 26 11 14 1014.0 1011.4 0.0
02/09:10am 15.9 13.9 15.4 97 0.3 ENE 20 24 11 13 1014.2 1011.6 0.0
02/09:00am 15.4 13.2 14.8 96 0.4 ENE 20 24 11 13 1014.2 1011.6 5.0
02/08:44am 15.1 13.5 15.1 100 0.0 NE 17 20 9 11 1014.4 1011.8 5.0
02/08:30am 14.8 13.4 14.6 99 0.1 NE 15 20 8 11 1014.7 1012.1 5.0
02/08:00am 14.6 13.9 14.3 98 0.2 NNE 11 15 6 8 1014.9 1012.3 5.0
02/07:30am 15.0 13.5 14.2 95 0.5 E 15 20 8 11 1013.8 1011.2 4.2
02/07:00am 15.0 13.9 14.2 95 0.5 E 13 19 7 10 1013.5 1010.9 4.0
02/06:30am 15.0 13.7 13.7 92 0.7 ESE 13 15 7 8 1013.2 1010.6 4.0
02/06:00am 15.0 14.9 14.0 94 0.6 ESE 7 11 4 6 1013.1 1010.5 4.0
02/05:30am 15.0 14.6 14.0 94 0.6 ESE 9 13 5 7 1013.0 1010.4 4.0
02/05:00am 14.9 14.6 14.3 96 0.3 SE 9 11 5 6 1012.7 1010.0 4.0
02/04:30am 14.7 14.3 14.1 96 0.3 SSE 9 15 5 8 1012.9 1010.3 4.0
02/04:00am 14.7 13.6 14.4 98 0.2 S 13 17 7 9 1012.9 1010.3 4.0
02/03:30am 14.9 14.4 14.9 100 0.0 S 11 15 6 8 1013.5 1010.9 4.0
02/03:00am 15.1 15.3 14.8 98 0.2 SSW 7 11 4 6 1014.0 1011.4 3.4
02/02:30am 15.2 14.9 14.4 95 0.5 WSW 9 11 5 6 1014.4 1011.8 2.0
02/02:00am 15.9 15.3 13.6 86 1.3 WNW 9 9 5 5 1014.3 1011.7 0.8
02/01:30am 16.1 16.0 13.2 83 1.7 SW 6 9 3 5 1014.2 1011.6 0.8
02/01:00am 16.1 15.8 13.2 83 1.7 WSW 7 11 4 6 1014.8 1012.2 0.8
02/12:30am 16.4 15.7 13.3 82 1.8 SW 9 13 5 7 1015.2 1012.6 0.8
02/12:00am 16.8 14.8 12.7 77 2.3 SW 15 20 8 11 1015.1 1012.5 0.8
 
Date/Time
CST
Temp
°C
App
Temp
°C
Dew
Point
°C
Rel
Hum
%
Delta-T
°C
Wind Press
QNH
hPa
Press
MSL
hPa
Rain since
9am
mm
Dir  Spd
km/h
Gust
km/h
Spd
kts
Gust
kts
01/11:30pm 18.0 14.9 10.4 61 4.2 SSW 17 24 9 13 1014.7 1012.1 0.8
01/11:00pm 18.1 15.6 11.0 63 3.9 SW 15 20 8 11 1015.1 1012.5 0.8
01/10:30pm 17.5 16.4 13.2 76 2.5 SSW 11 17 6 9 1014.7 1012.1 0.8
01/10:00pm 17.5 17.0 13.8 79 2.2 SSE 9 11 5 6 1014.2 1011.6 0.8
01/09:30pm 17.5 17.3 13.0 75 2.6 S 6 7 3 4 1014.7 1012.1 0.8
01/09:00pm 17.4 16.9 12.7 74 2.7 SW 7 9 4 5 1014.7 1012.1 0.8
01/08:30pm 17.0 16.8 13.5 80 2.0 WNW 7 9 4 5 1014.5 1012.0 0.8
01/08:00pm 17.6 18.1 12.7 73 2.8 SSE 2 6 1 3 1013.4 1010.8 0.8
01/07:30pm 17.9 17.3 13.6 76 2.5 SE 9 11 5 6 1013.2 1010.6 0.8
01/07:00pm 18.3 19.2 13.0 71 3.0 CALM 0 0 0 0 1013.3 1010.7 0.8
01/06:30pm 18.8 18.1 11.9 64 3.9 E 7 11 4 6 1013.3 1010.7 0.8
01/06:00pm 18.6 17.7 11.4 63 4.0 SSW 7 15 4 8 1013.4 1010.8 0.8
01/05:30pm 18.1 15.2 11.0 63 3.9 E 17 39 9 21 1012.6 1009.9 0.8
01/05:28pm 18.0 14.6 11.1 64 3.8 E 20 39 11 21 1012.6 1009.9 0.8
01/05:17pm 17.6 11.7 12.5 72 2.9 ENE 35 44 19 24 1010.4 1007.7 0.8
01/05:12pm 17.3 12.5 13.0 76 2.5 ENE 30 44 16 24 1011.3 1008.7 0.6
01/05:00pm 17.7 14.2 13.4 76 2.5 NE 24 30 13 16 1013.4 1010.8 0.2
01/04:30pm 20.5 16.7 9.7 50 5.9 NNE 20 30 11 16 1013.9 1011.3 0.0
01/04:00pm 22.8 19.1 7.8 38 8.0 N 17 22 9 12 1014.0 1011.4 0.0
01/03:30pm 23.9 20.2 6.2 32 9.3 N 15 20 8 11 1014.2 1011.6 0.0
01/03:11pm 23.6 19.0 6.4 33 9.0 NNE 20 46 11 25 1014.0 1011.4 0.0
01/03:00pm 25.5 20.8 2.9 23 11.3 ENE 17 26 9 14 1013.5 1010.9 0.0
01/02:30pm 25.5 20.8 2.9 23 11.3 NE 17 22 9 12 1013.4 1010.8 0.0
01/02:00pm 25.6 20.0 3.6 24 11.1 NE 22 30 12 16 1013.5 1010.9 0.0
01/01:30pm 25.7 20.6 3.0 23 11.4 NE 19 32 10 17 1014.2 1011.6 0.0
01/01:00pm 25.9 19.6 3.8 24 11.2 ENE 26 39 14 21 1014.2 1011.6 0.0
01/12:30pm 25.4 18.9 4.5 26 10.7 ENE 28 39 15 21 1014.7 1012.1 0.0
01/12:00pm 24.1 17.6 4.5 28 10.0 ENE 28 37 15 20 1015.0 1012.4 0.0
01/11:30am 23.7 17.6 4.6 29 9.7 ENE 26 37 14 20 1015.7 1013.1 0.0
01/11:00am 22.9 17.4 5.8 33 8.8 E 24 32 13 17 1016.5 1014.0 0.0
01/10:30am 21.6 16.9 5.9 36 8.1 E 20 28 11 15 1016.9 1014.3 0.0
01/10:00am 20.3 16.8 7.3 43 6.8 E 15 20 8 11 1017.3 1014.7 0.0
01/09:30am 18.9 16.0 8.3 50 5.6 E 13 19 7 10 1017.1 1014.5 0.0
01/09:00am 17.6 15.0 9.2 58 4.5 E 13 17 7 9 1017.3 1015.5 0.8
01/08:30am 16.5 14.6 10.6 68 3.2 ESE 11 15 6 8 1017.4 1015.6 0.8
01/08:00am 15.6 14.7 11.2 75 2.4 ESE 7 11 4 6 1017.2 1015.4 0.8
01/07:30am 15.1 14.3 11.1 77 2.2 SSE 6 9 3 5 1017.3 1015.5 0.8
01/07:00am 14.8 13.7 10.8 77 2.2 S 7 9 4 5 1017.1 1015.3 0.8
01/06:30am 14.7 11.6 10.3 75 2.4 SW 17 24 9 13 1017.1 1015.3 0.8
01/06:00am 15.0 13.0 10.0 72 2.7 SSW 11 17 6 9 1015.8 1014.0 0.8
01/05:52am 14.9 12.6 10.3 74 2.5 SSW 13 17 7 9 1016.3 1014.5 0.8
01/05:30am 15.4 14.2 10.2 71 2.8 NE 7 11 4 6 1014.3 1012.5 0.8
01/05:00am 15.4 11.8 9.7 69 3.0 NE 19 24 10 13 1013.6 1011.8 0.8
01/04:30am 15.5 15.1 12.3 81 1.8 E 6 9 3 5 1015.5 1013.7 0.8
01/04:00am 15.5 15.0 12.6 83 1.6 ESE 7 11 4 6 1016.5 1014.7 0.8
01/03:30am 15.1 16.3 13.8 92 0.7 CALM 0 0 0 0 1017.8 1016.0 0.8
01/03:00am 15.0 16.1 13.4 90 0.9 CALM 0 0 0 0 1018.3 1016.5 0.8
01/02:30am 15.0 14.2 12.9 87 1.2 SSW 9 11 5 6 1019.0 1017.2 0.6
01/02:00am 15.5 14.3 11.7 78 2.1 SW 9 11 5 6 1019.0 1017.2 0.2
01/01:30am 16.1 15.2 11.3 73 2.6 WSW 7 9 4 5 1019.3 1017.5 0.2
01/01:00am 16.8 14.6 9.5 62 3.9 S 11 15 6 8 1019.4 1017.6 0.2
01/12:30am 16.5 14.9 11.6 73 2.7 ESE 11 15 6 8 1019.1 1017.3 0.2
01/12:00am 16.6 15.7 11.5 72 2.8 ESE 7 11 4 6 1019.9 1018.1 0.2
 
Date/Time
CST
Temp
°C
App
Temp
°C
Dew
Point
°C
Rel
Hum
%
Delta-T
°C
Wind Press
QNH
hPa
Press
MSL
hPa
Rain since
9am
mm
Dir  Spd
km/h
Gust
km/h
Spd
kts
Gust
kts
30/11:30pm 16.0 14.9 11.8 76 2.3 S 9 13 5 7 1020.6 1018.9 0.2
30/11:00pm 15.6 14.7 12.5 82 1.7 S 9 13 5 7 1021.3 1019.5 0.2
30/10:30pm 16.5 13.8 10.4 67 3.3 S 15 19 8 10 1021.7 1019.9 0.0
30/10:00pm 18.3 15.8 6.5 46 6.0 SSW 9 13 5 7 1021.8 1020.0 0.0
30/09:30pm 18.9 15.6 4.7 39 7.0 SSW 11 17 6 9 1021.6 1019.8 0.0
30/09:00pm 19.1 15.6 3.7 36 7.4 SSW 11 15 6 8 1020.6 1018.9 0.0
30/08:30pm 19.3 16.2 3.5 35 7.6 S 9 13 5 7 1020.0 1018.2 0.0
30/08:00pm 19.6 16.4 3.3 34 7.9 S 9 11 5 6 1019.8 1018.0 0.0
30/07:30pm 19.9 16.7 3.2 33 8.0 SSE 9 13 5 7 1019.2 1017.4 0.0
30/07:00pm 20.4 17.1 2.7 31 8.5 SSE 9 13 5 7 1019.1 1017.3 0.0
30/06:30pm 21.0 17.3 2.3 29 8.9 SSE 11 17 6 9 1018.7 1017.0 0.0
30/06:00pm 21.5 17.5 2.7 29 9.1 SSE 13 19 7 10 1018.8 1017.1 0.0
30/05:30pm 21.8 17.4 2.5 28 9.3 ESE 15 22 8 12 1018.3 1016.5 0.0
30/05:00pm 22.1 16.6 1.7 26 9.7 ESE 20 26 11 14 1018.5 1016.8 0.0
30/04:30pm 22.2 16.3 1.8 26 9.7 ESE 22 30 12 16 1018.3 1016.5 0.0
30/04:00pm 22.3 16.4 1.9 26 9.8 E 22 28 12 15 1018.1 1016.3 0.0
30/03:30pm 22.7 15.7 1.7 25 10.0 SE 28 39 15 21 1017.8 1016.0 0.0
30/03:00pm 22.8 17.3 1.8 25 10.1 ESE 20 30 11 16 1018.8 1017.1 0.0
30/02:30pm 21.6 16.3 2.8 29 9.1 ESE 20 30 11 16 1019.0 1017.2 0.0
30/02:00pm 21.4 16.8 3.6 31 8.8 ESE 17 22 9 12 1019.8 1018.0 0.0
30/01:30pm 21.4 16.6 4.5 33 8.4 E 19 26 10 14 1019.8 1018.0 0.0
30/01:00pm 21.2 16.8 4.7 34 8.3 E 17 22 9 12 1020.0 1018.2 0.0
30/12:30pm 22.0 16.0 1.1 25 9.8 E 22 28 12 15 1020.4 1018.7 0.0
30/12:00pm 22.0 14.9 1.1 25 9.8 ENE 28 37 15 20 1020.9 1019.2 0.0
30/11:30am 21.1 14.8 1.4 27 9.2 E 24 33 13 18 1021.4 1019.6 0.0
30/11:00am 20.5 13.9 2.3 30 8.7 E 26 35 14 19 1021.7 1019.9 0.0
30/10:30am 20.2 13.1 1.6 29 8.7 E 28 33 15 18 1021.3 1019.5 0.0
30/10:00am 19.8 12.7 1.3 29 8.6 E 28 35 15 19 1022.2 1020.5 0.0
30/09:30am 19.3 12.9 0.8 29 8.4 E 24 32 13 17 1022.6 1020.9 0.0
30/09:00am 19.1 13.6 0.7 29 8.4 E 19 28 10 15 1022.7 1021.0 0.0
30/08:30am 18.7 13.5 0.3 29 8.3 ESE 17 22 9 12 1022.4 1020.7 0.0
30/08:00am 17.6 13.3 0.7 32 7.6 ESE 13 19 7 10 1022.0 1020.3 0.0
30/07:30am 17.1 13.6 1.1 34 7.2 SE 9 13 5 7 1021.9 1020.1 0.0
30/07:00am 17.1 13.9 0.7 33 7.4 ESE 7 11 4 6 1021.6 1019.8 0.0

Other formats

Comma delimited format used in spreadsheet applications
http://www.bom.gov.au/fwo/IDD60801/IDD60801.94462.axf

JavaScript Object Notation format (JSON) in row-major order
http://www.bom.gov.au/fwo/IDD60801/IDD60801.94462.json

Data quality

Most of these data are generated automatically and are frequently updated. Quality checks on data are not normally performed. It is possible for incorrect values to appear. Refer to information at About Latest Weather Observations and please check the disclaimer before using these data.